sensor_id;sensor_type;location;lat;lon;timestamp;temperature;humidity
64937;SHT30;51452;47.698;19.050;2022-12-18T00:01:36;-0.66;70.05
64937;SHT30;51452;47.698;19.050;2022-12-18T00:04:03;-0.71;69.94
64937;SHT30;51452;47.698;19.050;2022-12-18T00:06:29;-0.83;70.27
64937;SHT30;51452;47.698;19.050;2022-12-18T00:08:57;-0.83;70.88
64937;SHT30;51452;47.698;19.050;2022-12-18T00:11:24;-0.83;71.19
64937;SHT30;51452;47.698;19.050;2022-12-18T00:13:51;-0.80;71.18
64937;SHT30;51452;47.698;19.050;2022-12-18T00:16:20;-0.76;70.80
64937;SHT30;51452;47.698;19.050;2022-12-18T00:18:46;-0.70;70.48
64937;SHT30;51452;47.698;19.050;2022-12-18T00:21:13;-0.66;70.40
64937;SHT30;51452;47.698;19.050;2022-12-18T00:23:40;-0.67;70.15
64937;SHT30;51452;47.698;19.050;2022-12-18T00:26:15;-0.76;69.98
64937;SHT30;51452;47.698;19.050;2022-12-18T00:28:42;-0.84;70.22
64937;SHT30;51452;47.698;19.050;2022-12-18T00:31:10;-0.85;70.39
64937;SHT30;51452;47.698;19.050;2022-12-18T00:33:37;-0.91;70.45
64937;SHT30;51452;47.698;19.050;2022-12-18T00:36:09;-0.83;70.72
64937;SHT30;51452;47.698;19.050;2022-12-18T00:38:35;-0.85;70.58
64937;SHT30;51452;47.698;19.050;2022-12-18T00:41:01;-0.85;70.63
64937;SHT30;51452;47.698;19.050;2022-12-18T00:43:27;-0.78;70.38
64937;SHT30;51452;47.698;19.050;2022-12-18T00:45:52;-0.77;70.59
64937;SHT30;51452;47.698;19.050;2022-12-18T00:48:18;-0.74;70.43
64937;SHT30;51452;47.698;19.050;2022-12-18T00:50:44;-0.68;70.47
64937;SHT30;51452;47.698;19.050;2022-12-18T00:53:09;-0.74;70.15
64937;SHT30;51452;47.698;19.050;2022-12-18T00:55:34;-0.70;70.21
64937;SHT30;51452;47.698;19.050;2022-12-18T00:58:00;-0.68;69.91
64937;SHT30;51452;47.698;19.050;2022-12-18T01:00:25;-0.71;70.55
64937;SHT30;51452;47.698;19.050;2022-12-18T01:02:51;-0.71;70.46
64937;SHT30;51452;47.698;19.050;2022-12-18T01:05:16;-0.73;70.18
64937;SHT30;51452;47.698;19.050;2022-12-18T01:07:42;-0.71;70.15
64937;SHT30;51452;47.698;19.050;2022-12-18T01:10:09;-0.74;70.64
64937;SHT30;51452;47.698;19.050;2022-12-18T01:12:35;-0.78;70.62
64937;SHT30;51452;47.698;19.050;2022-12-18T01:15:07;-0.83;70.71
64937;SHT30;51452;47.698;19.050;2022-12-18T01:17:33;-0.84;70.73
64937;SHT30;51452;47.698;19.050;2022-12-18T01:19:59;-0.87;70.95
64937;SHT30;51452;47.698;19.050;2022-12-18T01:22:28;-0.88;70.84
64937;SHT30;51452;47.698;19.050;2022-12-18T01:24:53;-0.88;70.50
64937;SHT30;51452;47.698;19.050;2022-12-18T01:27:18;-0.95;70.77
64937;SHT30;51452;47.698;19.050;2022-12-18T01:29:44;-0.92;70.53
64937;SHT30;51452;47.698;19.050;2022-12-18T01:32:09;-0.89;70.50
64937;SHT30;51452;47.698;19.050;2022-12-18T01:34:38;-0.87;70.33
64937;SHT30;51452;47.698;19.050;2022-12-18T01:37:06;-0.85;70.55
64937;SHT30;51452;47.698;19.050;2022-12-18T01:39:32;-0.99;71.92
64937;SHT30;51452;47.698;19.050;2022-12-18T01:41:59;-1.13;71.49
64937;SHT30;51452;47.698;19.050;2022-12-18T01:47:16;-1.05;71.13
64937;SHT30;51452;47.698;19.050;2022-12-18T01:49:52;-1.04;71.27
64937;SHT30;51452;47.698;19.050;2022-12-18T01:52:18;-1.04;71.21
64937;SHT30;51452;47.698;19.050;2022-12-18T01:54:46;-1.04;71.59
64937;SHT30;51452;47.698;19.050;2022-12-18T01:57:12;-1.26;71.79
64937;SHT30;51452;47.698;19.050;2022-12-18T01:59:39;-1.38;72.29
64937;SHT30;51452;47.698;19.050;2022-12-18T02:02:06;-1.34;72.44
64937;SHT30;51452;47.698;19.050;2022-12-18T02:04:32;-1.25;72.64
64937;SHT30;51452;47.698;19.050;2022-12-18T02:09:48;-1.26;72.48
64937;SHT30;51452;47.698;19.050;2022-12-18T02:12:25;-1.28;71.74
64937;SHT30;51452;47.698;19.050;2022-12-18T02:17:23;-1.32;71.92
64937;SHT30;51452;47.698;19.050;2022-12-18T02:20:04;-1.40;72.49
64937;SHT30;51452;47.698;19.050;2022-12-18T02:28:23;-1.55;72.63
64937;SHT30;51452;47.698;19.050;2022-12-18T02:30:52;-1.64;73.05
64937;SHT30;51452;47.698;19.050;2022-12-18T02:33:25;-1.53;72.80
64937;SHT30;51452;47.698;19.050;2022-12-18T02:36:02;-1.42;72.41
64937;SHT30;51452;47.698;19.050;2022-12-18T02:38:28;-1.43;71.95
64937;SHT30;51452;47.698;19.050;2022-12-18T02:41:04;-1.46;71.62
64937;SHT30;51452;47.698;19.050;2022-12-18T02:43:30;-1.49;71.66
64937;SHT30;51452;47.698;19.050;2022-12-18T02:45:58;-1.39;71.52
64937;SHT30;51452;47.698;19.050;2022-12-18T02:48:28;-1.29;71.10
64937;SHT30;51452;47.698;19.050;2022-12-18T02:51:18;-1.32;70.65
64937;SHT30;51452;47.698;19.050;2022-12-18T02:53:52;-1.34;70.57
64937;SHT30;51452;47.698;19.050;2022-12-18T02:56:22;-1.32;70.38
64937;SHT30;51452;47.698;19.050;2022-12-18T03:04:43;-1.58;69.79
64937;SHT30;51452;47.698;19.050;2022-12-18T03:07:18;-1.59;71.02
64937;SHT30;51452;47.698;19.050;2022-12-18T03:09:48;-1.59;72.21
64937;SHT30;51452;47.698;19.050;2022-12-18T03:12:27;-1.55;72.45
64937;SHT30;51452;47.698;19.050;2022-12-18T03:15:01;-1.52;72.65
64937;SHT30;51452;47.698;19.050;2022-12-18T03:17:30;-1.58;72.29
64937;SHT30;51452;47.698;19.050;2022-12-18T03:20:00;-1.55;72.69
64937;SHT30;51452;47.698;19.050;2022-12-18T03:22:29;-1.50;72.74
64937;SHT30;51452;47.698;19.050;2022-12-18T03:24:56;-1.50;72.83
64937;SHT30;51452;47.698;19.050;2022-12-18T03:27:23;-1.48;72.50
64937;SHT30;51452;47.698;19.050;2022-12-18T03:30:01;-1.52;72.18
64937;SHT30;51452;47.698;19.050;2022-12-18T03:32:38;-1.58;71.90
64937;SHT30;51452;47.698;19.050;2022-12-18T03:35:05;-1.59;72.18
64937;SHT30;51452;47.698;19.050;2022-12-18T03:37:32;-1.56;72.06
64937;SHT30;51452;47.698;19.050;2022-12-18T03:39:58;-1.58;71.94
64937;SHT30;51452;47.698;19.050;2022-12-18T03:42:32;-1.62;72.33
64937;SHT30;51452;47.698;19.050;2022-12-18T03:45:36;-1.69;72.33
64937;SHT30;51452;47.698;19.050;2022-12-18T03:48:13;-1.66;72.30
64937;SHT30;51452;47.698;19.050;2022-12-18T03:50:49;-1.69;72.38
64937;SHT30;51452;47.698;19.050;2022-12-18T03:55:51;-1.69;72.58
64937;SHT30;51452;47.698;19.050;2022-12-18T03:58:20;-1.70;72.32
64937;SHT30;51452;47.698;19.050;2022-12-18T04:00:47;-1.73;72.96
64937;SHT30;51452;47.698;19.050;2022-12-18T04:03:13;-1.70;73.12
64937;SHT30;51452;47.698;19.050;2022-12-18T04:05:41;-1.71;72.93
64937;SHT30;51452;47.698;19.050;2022-12-18T04:08:07;-1.81;71.77
64937;SHT30;51452;47.698;19.050;2022-12-18T04:10:32;-1.93;71.15
64937;SHT30;51452;47.698;19.050;2022-12-18T04:12:58;-1.98;72.22
64937;SHT30;51452;47.698;19.050;2022-12-18T04:15:24;-1.98;72.94
64937;SHT30;51452;47.698;19.050;2022-12-18T04:17:50;-2.00;73.26
64937;SHT30;51452;47.698;19.050;2022-12-18T04:20:16;-2.00;74.00
64937;SHT30;51452;47.698;19.050;2022-12-18T04:22:41;-1.93;73.84
64937;SHT30;51452;47.698;19.050;2022-12-18T04:25:07;-1.91;73.72
64937;SHT30;51452;47.698;19.050;2022-12-18T04:27:33;-2.01;71.78
64937;SHT30;51452;47.698;19.050;2022-12-18T04:29:59;-2.01;72.39
64937;SHT30;51452;47.698;19.050;2022-12-18T04:32:24;-1.98;72.82
64937;SHT30;51452;47.698;19.050;2022-12-18T04:35:11;-2.05;72.82
64937;SHT30;51452;47.698;19.050;2022-12-18T04:37:37;-2.04;73.38
64937;SHT30;51452;47.698;19.050;2022-12-18T04:40:02;-2.08;73.51
64937;SHT30;51452;47.698;19.050;2022-12-18T04:42:28;-2.10;72.85
64937;SHT30;51452;47.698;19.050;2022-12-18T04:44:53;-2.15;72.44
64937;SHT30;51452;47.698;19.050;2022-12-18T04:47:19;-2.18;73.30
64937;SHT30;51452;47.698;19.050;2022-12-18T04:49:44;-2.14;73.76
64937;SHT30;51452;47.698;19.050;2022-12-18T04:52:10;-2.07;73.85
64937;SHT30;51452;47.698;19.050;2022-12-18T04:54:35;-2.05;74.36
64937;SHT30;51452;47.698;19.050;2022-12-18T04:57:00;-2.08;74.62
64937;SHT30;51452;47.698;19.050;2022-12-18T04:59:26;-2.04;74.48
64937;SHT30;51452;47.698;19.050;2022-12-18T05:01:51;-2.04;73.87
64937;SHT30;51452;47.698;19.050;2022-12-18T05:04:16;-2.05;74.12
64937;SHT30;51452;47.698;19.050;2022-12-18T05:06:42;-1.98;73.94
64937;SHT30;51452;47.698;19.050;2022-12-18T05:09:07;-1.93;73.77
64937;SHT30;51452;47.698;19.050;2022-12-18T05:11:36;-1.95;72.97
64937;SHT30;51452;47.698;19.050;2022-12-18T05:14:01;-2.02;71.95
64937;SHT30;51452;47.698;19.050;2022-12-18T05:16:26;-2.14;72.75
64937;SHT30;51452;47.698;19.050;2022-12-18T05:18:52;-2.24;73.35
64937;SHT30;51452;47.698;19.050;2022-12-18T05:21:17;-2.22;73.59
64937;SHT30;51452;47.698;19.050;2022-12-18T05:23:42;-2.17;73.52
64937;SHT30;51452;47.698;19.050;2022-12-18T05:26:08;-2.17;73.46
64937;SHT30;51452;47.698;19.050;2022-12-18T05:28:35;-2.14;73.01
64937;SHT30;51452;47.698;19.050;2022-12-18T05:31:04;-2.17;72.62
64937;SHT30;51452;47.698;19.050;2022-12-18T05:33:32;-2.21;72.06
64937;SHT30;51452;47.698;19.050;2022-12-18T05:35:59;-2.25;72.89
64937;SHT30;51452;47.698;19.050;2022-12-18T05:38:27;-2.28;73.51
64937;SHT30;51452;47.698;19.050;2022-12-18T05:40:53;-2.27;73.57
64937;SHT30;51452;47.698;19.050;2022-12-18T05:43:20;-2.27;73.61
64937;SHT30;51452;47.698;19.050;2022-12-18T05:45:47;-2.27;73.26
64937;SHT30;51452;47.698;19.050;2022-12-18T05:48:13;-2.28;73.28
64937;SHT30;51452;47.698;19.050;2022-12-18T05:50:40;-2.29;73.45
64937;SHT30;51452;47.698;19.050;2022-12-18T05:53:06;-2.20;74.26
64937;SHT30;51452;47.698;19.050;2022-12-18T05:55:36;-2.22;74.03
64937;SHT30;51452;47.698;19.050;2022-12-18T05:58:03;-2.25;74.16
64937;SHT30;51452;47.698;19.050;2022-12-18T06:00:29;-2.20;73.94
64937;SHT30;51452;47.698;19.050;2022-12-18T06:02:54;-2.25;73.52
64937;SHT30;51452;47.698;19.050;2022-12-18T06:05:20;-2.28;73.19
64937;SHT30;51452;47.698;19.050;2022-12-18T06:07:45;-2.32;73.49
64937;SHT30;51452;47.698;19.050;2022-12-18T06:10:11;-2.32;73.51
64937;SHT30;51452;47.698;19.050;2022-12-18T06:12:36;-2.35;73.47
64937;SHT30;51452;47.698;19.050;2022-12-18T06:15:02;-2.48;71.83
64937;SHT30;51452;47.698;19.050;2022-12-18T06:17:29;-2.52;72.54
64937;SHT30;51452;47.698;19.050;2022-12-18T06:19:55;-2.69;70.95
64937;SHT30;51452;47.698;19.050;2022-12-18T06:22:21;-2.73;72.71
64937;SHT30;51452;47.698;19.050;2022-12-18T06:24:46;-2.73;73.40
64937;SHT30;51452;47.698;19.050;2022-12-18T06:27:12;-2.68;73.93
64937;SHT30;51452;47.698;19.050;2022-12-18T06:29:37;-2.63;74.31
64937;SHT30;51452;47.698;19.050;2022-12-18T06:32:02;-2.60;74.14
64937;SHT30;51452;47.698;19.050;2022-12-18T06:34:28;-2.53;74.06
64937;SHT30;51452;47.698;19.050;2022-12-18T06:36:53;-2.52;73.77
64937;SHT30;51452;47.698;19.050;2022-12-18T06:39:19;-2.56;72.97
64937;SHT30;51452;47.698;19.050;2022-12-18T06:41:44;-2.52;73.12
64937;SHT30;51452;47.698;19.050;2022-12-18T06:44:09;-2.52;73.88
64937;SHT30;51452;47.698;19.050;2022-12-18T06:46:35;-2.49;74.04
64937;SHT30;51452;47.698;19.050;2022-12-18T06:49:00;-2.44;73.51
64937;SHT30;51452;47.698;19.050;2022-12-18T06:51:26;-2.48;73.61
64937;SHT30;51452;47.698;19.050;2022-12-18T06:53:51;-2.56;74.59
64937;SHT30;51452;47.698;19.050;2022-12-18T06:56:17;-2.46;74.45
64937;SHT30;51452;47.698;19.050;2022-12-18T06:58:42;-2.37;74.47
64937;SHT30;51452;47.698;19.050;2022-12-18T07:01:10;-2.31;74.04
64937;SHT30;51452;47.698;19.050;2022-12-18T07:03:37;-2.29;73.61
64937;SHT30;51452;47.698;19.050;2022-12-18T07:06:03;-2.27;73.67
64937;SHT30;51452;47.698;19.050;2022-12-18T07:08:29;-2.21;73.47
64937;SHT30;51452;47.698;19.050;2022-12-18T07:10:55;-2.22;72.45
64937;SHT30;51452;47.698;19.050;2022-12-18T07:13:20;-2.22;73.19
64937;SHT30;51452;47.698;19.050;2022-12-18T07:15:55;-2.24;73.29
64937;SHT30;51452;47.698;19.050;2022-12-18T07:18:20;-2.12;73.70
64937;SHT30;51452;47.698;19.050;2022-12-18T07:20:46;-2.05;74.27
64937;SHT30;51452;47.698;19.050;2022-12-18T07:23:11;-2.01;73.86
64937;SHT30;51452;47.698;19.050;2022-12-18T07:25:37;-1.98;73.49
64937;SHT30;51452;47.698;19.050;2022-12-18T07:28:03;-1.95;73.53
64937;SHT30;51452;47.698;19.050;2022-12-18T07:30:28;-1.91;73.54
64937;SHT30;51452;47.698;19.050;2022-12-18T07:32:54;-1.87;73.67
64937;SHT30;51452;47.698;19.050;2022-12-18T07:35:20;-1.79;73.73
64937;SHT30;51452;47.698;19.050;2022-12-18T07:37:45;-1.71;73.79
64937;SHT30;51452;47.698;19.050;2022-12-18T07:40:11;-1.67;74.63
64937;SHT30;51452;47.698;19.050;2022-12-18T07:42:37;-1.58;74.51
64937;SHT30;51452;47.698;19.050;2022-12-18T07:45:02;-1.42;73.95
64937;SHT30;51452;47.698;19.050;2022-12-18T07:47:28;-1.39;73.39
64937;SHT30;51452;47.698;19.050;2022-12-18T07:49:54;-1.26;73.48
64937;SHT30;51452;47.698;19.050;2022-12-18T07:52:20;-1.20;73.60
64937;SHT30;51452;47.698;19.050;2022-12-18T07:54:46;-1.16;73.42
64937;SHT30;51452;47.698;19.050;2022-12-18T07:57:14;-1.12;73.44
64937;SHT30;51452;47.698;19.050;2022-12-18T07:59:39;-1.04;73.12
64937;SHT30;51452;47.698;19.050;2022-12-18T08:02:05;-0.98;73.11
64937;SHT30;51452;47.698;19.050;2022-12-18T08:04:30;-0.92;72.47
64937;SHT30;51452;47.698;19.050;2022-12-18T08:06:59;-0.92;72.09
64937;SHT30;51452;47.698;19.050;2022-12-18T08:09:24;-0.88;71.45
64937;SHT30;51452;47.698;19.050;2022-12-18T08:11:50;-0.83;71.36
64937;SHT30;51452;47.698;19.050;2022-12-18T08:14:15;-0.76;71.36
64937;SHT30;51452;47.698;19.050;2022-12-18T08:16:41;-0.71;71.14
64937;SHT30;51452;47.698;19.050;2022-12-18T08:19:06;-0.64;71.47
64937;SHT30;51452;47.698;19.050;2022-12-18T08:21:32;-0.63;71.59
64937;SHT30;51452;47.698;19.050;2022-12-18T08:23:59;-0.53;71.31
64937;SHT30;51452;47.698;19.050;2022-12-18T08:26:27;-0.50;70.88
64937;SHT30;51452;47.698;19.050;2022-12-18T08:28:54;-0.46;70.68
64937;SHT30;51452;47.698;19.050;2022-12-18T08:31:20;-0.46;70.19
64937;SHT30;51452;47.698;19.050;2022-12-18T08:33:52;-0.44;70.25
64937;SHT30;51452;47.698;19.050;2022-12-18T08:36:18;-0.40;69.91
64937;SHT30;51452;47.698;19.050;2022-12-18T08:38:45;-0.40;70.19
64937;SHT30;51452;47.698;19.050;2022-12-18T08:41:12;-0.32;70.44
64937;SHT30;51452;47.698;19.050;2022-12-18T08:43:38;-0.27;70.60
64937;SHT30;51452;47.698;19.050;2022-12-18T08:46:23;-0.25;70.40
64937;SHT30;51452;47.698;19.050;2022-12-18T08:48:53;-0.22;69.41
64937;SHT30;51452;47.698;19.050;2022-12-18T08:51:20;-0.16;70.32
64937;SHT30;51452;47.698;19.050;2022-12-18T08:53:46;-0.10;70.41
64937;SHT30;51452;47.698;19.050;2022-12-18T08:56:12;-0.10;70.59
64937;SHT30;51452;47.698;19.050;2022-12-18T08:58:37;0.01;70.78
64937;SHT30;51452;47.698;19.050;2022-12-18T09:01:04;-0.03;70.66
64937;SHT30;51452;47.698;19.050;2022-12-18T09:03:31;0.09;70.01
64937;SHT30;51452;47.698;19.050;2022-12-18T09:05:56;0.12;70.23
64937;SHT30;51452;47.698;19.050;2022-12-18T09:08:22;0.16;70.17
64937;SHT30;51452;47.698;19.050;2022-12-18T09:10:49;0.25;70.22
64937;SHT30;51452;47.698;19.050;2022-12-18T09:13:16;0.25;70.05
64937;SHT30;51452;47.698;19.050;2022-12-18T09:15:52;0.28;70.52
64937;SHT30;51452;47.698;19.050;2022-12-18T09:18:19;0.36;70.49
64937;SHT30;51452;47.698;19.050;2022-12-18T09:20:45;0.36;70.95
64937;SHT30;51452;47.698;19.050;2022-12-18T09:23:11;0.43;70.92
64937;SHT30;51452;47.698;19.050;2022-12-18T09:25:37;0.41;71.22
64937;SHT30;51452;47.698;19.050;2022-12-18T09:28:06;0.46;71.23
64937;SHT30;51452;47.698;19.050;2022-12-18T09:30:37;0.50;71.04
64937;SHT30;51452;47.698;19.050;2022-12-18T09:33:02;0.56;70.99
64937;SHT30;51452;47.698;19.050;2022-12-18T09:35:28;0.59;70.81
64937;SHT30;51452;47.698;19.050;2022-12-18T09:37:53;0.66;70.84
64937;SHT30;51452;47.698;19.050;2022-12-18T09:40:22;0.70;70.84
64937;SHT30;51452;47.698;19.050;2022-12-18T09:42:54;0.70;70.95
64937;SHT30;51452;47.698;19.050;2022-12-18T09:45:21;0.72;70.97
64937;SHT30;51452;47.698;19.050;2022-12-18T09:47:48;0.74;71.03
64937;SHT30;51452;47.698;19.050;2022-12-18T09:50:30;0.77;70.78
64937;SHT30;51452;47.698;19.050;2022-12-18T09:53:00;0.79;70.83
64937;SHT30;51452;47.698;19.050;2022-12-18T09:55:42;0.79;70.38
64937;SHT30;51452;47.698;19.050;2022-12-18T10:00:35;0.84;71.03
64937;SHT30;51452;47.698;19.050;2022-12-18T10:03:09;0.90;70.72
64937;SHT30;51452;47.698;19.050;2022-12-18T10:06:07;0.93;70.69
64937;SHT30;51452;47.698;19.050;2022-12-18T10:23:01;1.15;70.36
64937;SHT30;51452;47.698;19.050;2022-12-18T10:25:15;1.13;69.97
64937;SHT30;51452;47.698;19.050;2022-12-18T10:27:42;1.24;70.42
64937;SHT30;51452;47.698;19.050;2022-12-18T10:30:19;1.25;70.64
64937;SHT30;51452;47.698;19.050;2022-12-18T10:32:44;1.32;70.57
64937;SHT30;51452;47.698;19.050;2022-12-18T10:35:28;1.31;70.35
64937;SHT30;51452;47.698;19.050;2022-12-18T10:41:06;1.35;69.49
64937;SHT30;51452;47.698;19.050;2022-12-18T10:43:39;1.41;69.66
64937;SHT30;51452;47.698;19.050;2022-12-18T10:46:11;1.44;69.49
64937;SHT30;51452;47.698;19.050;2022-12-18T10:51:29;1.42;69.12
64937;SHT30;51452;47.698;19.050;2022-12-18T10:56:21;1.58;69.13
64937;SHT30;51452;47.698;19.050;2022-12-18T10:58:58;1.58;68.61
64937;SHT30;51452;47.698;19.050;2022-12-18T11:01:24;1.56;69.06
64937;SHT30;51452;47.698;19.050;2022-12-18T11:06:16;1.58;69.15
64937;SHT30;51452;47.698;19.050;2022-12-18T11:08:46;1.69;68.73
64937;SHT30;51452;47.698;19.050;2022-12-18T11:11:23;1.75;68.87
64937;SHT30;51452;47.698;19.050;2022-12-18T11:16:23;1.82;67.81
64937;SHT30;51452;47.698;19.050;2022-12-18T11:18:49;1.82;68.43
64937;SHT30;51452;47.698;19.050;2022-12-18T11:21:15;1.89;68.42
64937;SHT30;51452;47.698;19.050;2022-12-18T11:23:51;1.93;68.59
64937;SHT30;51452;47.698;19.050;2022-12-18T11:26:17;1.95;68.47
64937;SHT30;51452;47.698;19.050;2022-12-18T11:28:46;1.96;68.60
64937;SHT30;51452;47.698;19.050;2022-12-18T11:31:23;2.03;68.64
64937;SHT30;51452;47.698;19.050;2022-12-18T11:34:09;2.03;68.46
64937;SHT30;51452;47.698;19.050;2022-12-18T11:36:42;2.16;68.40
64937;SHT30;51452;47.698;19.050;2022-12-18T11:41:54;2.16;67.97
64937;SHT30;51452;47.698;19.050;2022-12-18T11:49:51;2.26;67.62
64937;SHT30;51452;47.698;19.050;2022-12-18T11:52:27;2.23;67.83
64937;SHT30;51452;47.698;19.050;2022-12-18T11:55:00;2.28;67.27
64937;SHT30;51452;47.698;19.050;2022-12-18T12:00:21;2.33;67.17
64937;SHT30;51452;47.698;19.050;2022-12-18T12:16:34;2.42;66.41
64937;SHT30;51452;47.698;19.050;2022-12-18T12:22:03;2.49;65.82
64937;SHT30;51452;47.698;19.050;2022-12-18T12:24:42;2.49;65.65
64937;SHT30;51452;47.698;19.050;2022-12-18T12:35:33;2.49;64.63
64937;SHT30;51452;47.698;19.050;2022-12-18T12:38:26;2.57;64.88
64937;SHT30;51452;47.698;19.050;2022-12-18T12:40:58;2.55;64.49
64937;SHT30;51452;47.698;19.050;2022-12-18T12:43:39;2.52;65.11
64937;SHT30;51452;47.698;19.050;2022-12-18T12:46:08;2.61;64.98
64937;SHT30;51452;47.698;19.050;2022-12-18T12:48:42;2.58;64.45
64937;SHT30;51452;47.698;19.050;2022-12-18T12:51:14;2.59;63.80
64937;SHT30;51452;47.698;19.050;2022-12-18T12:53:41;2.61;64.36
64937;SHT30;51452;47.698;19.050;2022-12-18T12:56:09;2.66;64.79
64937;SHT30;51452;47.698;19.050;2022-12-18T12:59:03;2.72;65.09
64937;SHT30;51452;47.698;19.050;2022-12-18T13:04:36;2.74;64.66
64937;SHT30;51452;47.698;19.050;2022-12-18T13:07:37;2.74;65.55
64937;SHT30;51452;47.698;19.050;2022-12-18T13:13:01;2.84;65.69
64937;SHT30;51452;47.698;19.050;2022-12-18T13:15:39;2.84;65.09
64937;SHT30;51452;47.698;19.050;2022-12-18T13:25:48;2.82;64.95
64937;SHT30;51452;47.698;19.050;2022-12-18T13:28:21;2.76;64.99
64937;SHT30;51452;47.698;19.050;2022-12-18T13:30:57;2.79;65.19
64937;SHT30;51452;47.698;19.050;2022-12-18T13:40:59;2.79;65.36
64937;SHT30;51452;47.698;19.050;2022-12-18T13:43:33;2.84;65.12
64937;SHT30;51452;47.698;19.050;2022-12-18T13:48:50;2.81;63.79
64937;SHT30;51452;47.698;19.050;2022-12-18T13:51:17;2.84;64.90
64937;SHT30;51452;47.698;19.050;2022-12-18T13:53:45;2.79;64.84
64937;SHT30;51452;47.698;19.050;2022-12-18T13:56:23;2.75;64.51
64937;SHT30;51452;47.698;19.050;2022-12-18T13:59:21;2.64;64.62
64937;SHT30;51452;47.698;19.050;2022-12-18T14:01:57;2.65;64.44
64937;SHT30;51452;47.698;19.050;2022-12-18T14:04:28;2.61;64.58
64937;SHT30;51452;47.698;19.050;2022-12-18T14:07:14;2.55;64.42
64937;SHT30;51452;47.698;19.050;2022-12-18T14:12:39;2.54;64.36
64937;SHT30;51452;47.698;19.050;2022-12-18T14:18:12;2.45;64.81
64937;SHT30;51452;47.698;19.050;2022-12-18T14:20:43;2.40;64.51
64937;SHT30;51452;47.698;19.050;2022-12-18T14:25:56;2.35;65.58
64937;SHT30;51452;47.698;19.050;2022-12-18T14:28:22;2.33;66.14
64937;SHT30;51452;47.698;19.050;2022-12-18T14:30:47;2.26;66.76
64937;SHT30;51452;47.698;19.050;2022-12-18T14:33:16;2.16;67.04
64937;SHT30;51452;47.698;19.050;2022-12-18T14:35:53;2.07;67.22
64937;SHT30;51452;47.698;19.050;2022-12-18T14:38:29;2.00;67.39
64937;SHT30;51452;47.698;19.050;2022-12-18T14:43:24;1.87;67.56
64937;SHT30;51452;47.698;19.050;2022-12-18T14:45:50;1.86;67.89
64937;SHT30;51452;47.698;19.050;2022-12-18T14:51:06;1.77;67.03
64937;SHT30;51452;47.698;19.050;2022-12-18T14:53:40;1.73;67.43
64937;SHT30;51452;47.698;19.050;2022-12-18T14:56:25;1.66;67.89
64937;SHT30;51452;47.698;19.050;2022-12-18T14:58:57;1.58;68.04
64937;SHT30;51452;47.698;19.050;2022-12-18T15:04:31;1.44;68.49
64937;SHT30;51452;47.698;19.050;2022-12-18T15:07:18;1.34;68.92
64937;SHT30;51452;47.698;19.050;2022-12-18T15:21:07;1.09;69.68
64937;SHT30;51452;47.698;19.050;2022-12-18T15:23:48;1.07;69.78
64937;SHT30;51452;47.698;19.050;2022-12-18T15:26:17;1.05;69.81
64937;SHT30;51452;47.698;19.050;2022-12-18T15:36:19;0.97;70.02
64937;SHT30;51452;47.698;19.050;2022-12-18T15:38:53;0.95;69.82
64937;SHT30;51452;47.698;19.050;2022-12-18T15:41:21;0.85;69.97
64937;SHT30;51452;47.698;19.050;2022-12-18T15:43:49;0.73;69.78
64937;SHT30;51452;47.698;19.050;2022-12-18T15:48:45;0.72;70.26
64937;SHT30;51452;47.698;19.050;2022-12-18T15:51:23;0.74;70.18
64937;SHT30;51452;47.698;19.050;2022-12-18T15:53:52;0.77;70.06
64937;SHT30;51452;47.698;19.050;2022-12-18T15:56:19;0.79;70.14
64937;SHT30;51452;47.698;19.050;2022-12-18T15:59:17;0.74;69.80
64937;SHT30;51452;47.698;19.050;2022-12-18T16:01:47;0.73;69.67
64937;SHT30;51452;47.698;19.050;2022-12-18T16:04:16;0.72;69.41
64937;SHT30;51452;47.698;19.050;2022-12-18T16:06:43;0.73;68.77
64937;SHT30;51452;47.698;19.050;2022-12-18T16:09:09;0.73;69.00
64937;SHT30;51452;47.698;19.050;2022-12-18T16:11:36;0.69;68.06
64937;SHT30;51452;47.698;19.050;2022-12-18T16:14:28;0.66;68.42
64937;SHT30;51452;47.698;19.050;2022-12-18T16:16:56;0.70;68.57
64937;SHT30;51452;47.698;19.050;2022-12-18T16:19:23;0.69;67.65
64937;SHT30;51452;47.698;19.050;2022-12-18T16:21:51;0.67;67.26
64937;SHT30;51452;47.698;19.050;2022-12-18T16:24:20;0.67;66.71
64937;SHT30;51452;47.698;19.050;2022-12-18T16:26:48;0.69;67.41
64937;SHT30;51452;47.698;19.050;2022-12-18T16:29:14;0.67;67.15
64937;SHT30;51452;47.698;19.050;2022-12-18T16:31:40;0.69;67.49
64937;SHT30;51452;47.698;19.050;2022-12-18T16:34:19;0.67;67.31
64937;SHT30;51452;47.698;19.050;2022-12-18T16:36:54;0.64;67.42
64937;SHT30;51452;47.698;19.050;2022-12-18T16:39:20;0.63;67.08
64937;SHT30;51452;47.698;19.050;2022-12-18T16:41:46;0.59;66.75
64937;SHT30;51452;47.698;19.050;2022-12-18T16:44:13;0.62;67.26
64937;SHT30;51452;47.698;19.050;2022-12-18T16:46:39;0.59;67.45
64937;SHT30;51452;47.698;19.050;2022-12-18T16:49:08;0.53;67.61
64937;SHT30;51452;47.698;19.050;2022-12-18T16:51:36;0.52;67.79
64937;SHT30;51452;47.698;19.050;2022-12-18T16:54:02;0.50;67.93
64937;SHT30;51452;47.698;19.050;2022-12-18T16:56:30;0.43;68.24
64937;SHT30;51452;47.698;19.050;2022-12-18T16:58:57;0.42;68.01
64937;SHT30;51452;47.698;19.050;2022-12-18T17:01:25;0.35;68.01
64937;SHT30;51452;47.698;19.050;2022-12-18T17:03:52;0.26;68.18
64937;SHT30;51452;47.698;19.050;2022-12-18T17:06:20;0.23;68.22
64937;SHT30;51452;47.698;19.050;2022-12-18T17:08:46;0.18;67.79
64937;SHT30;51452;47.698;19.050;2022-12-18T17:11:12;0.12;67.97
64937;SHT30;51452;47.698;19.050;2022-12-18T17:13:38;0.06;68.40
64937;SHT30;51452;47.698;19.050;2022-12-18T17:16:06;-0.01;68.58
64937;SHT30;51452;47.698;19.050;2022-12-18T17:18:32;0.04;68.80
64937;SHT30;51452;47.698;19.050;2022-12-18T17:20:59;-0.08;69.59
64937;SHT30;51452;47.698;19.050;2022-12-18T17:23:26;-0.09;69.48
64937;SHT30;51452;47.698;19.050;2022-12-18T17:25:57;-0.08;69.21
64937;SHT30;51452;47.698;19.050;2022-12-18T17:28:24;-0.09;69.05
64937;SHT30;51452;47.698;19.050;2022-12-18T17:30:51;-0.13;69.45
64937;SHT30;51452;47.698;19.050;2022-12-18T17:33:17;-0.17;69.59
64937;SHT30;51452;47.698;19.050;2022-12-18T17:35:43;-0.17;69.61
64937;SHT30;51452;47.698;19.050;2022-12-18T17:38:10;-0.22;69.87
64937;SHT30;51452;47.698;19.050;2022-12-18T17:40:36;-0.22;69.89
64937;SHT30;51452;47.698;19.050;2022-12-18T17:43:02;-0.20;69.79
64937;SHT30;51452;47.698;19.050;2022-12-18T17:45:28;-0.22;70.01
64937;SHT30;51452;47.698;19.050;2022-12-18T17:47:54;-0.23;69.86
64937;SHT30;51452;47.698;19.050;2022-12-18T17:50:20;-0.22;69.45
64937;SHT30;51452;47.698;19.050;2022-12-18T17:52:46;-0.16;69.78
64937;SHT30;51452;47.698;19.050;2022-12-18T17:55:11;-0.15;70.02
64937;SHT30;51452;47.698;19.050;2022-12-18T17:57:37;-0.19;69.99
64937;SHT30;51452;47.698;19.050;2022-12-18T18:00:04;-0.22;70.22
64937;SHT30;51452;47.698;19.050;2022-12-18T18:02:30;-0.26;70.46
64937;SHT30;51452;47.698;19.050;2022-12-18T18:04:56;-0.29;70.55